sensor_id;sensor_type;location;lat;lon;timestamp;P1;durP1;ratioP1;P2;durP2;ratioP2
42600;SDS011;28229;48.856;9.088;2022-08-19T00:01:52;13.17;;;11.97;;
42600;SDS011;28229;48.856;9.088;2022-08-19T00:04:21;12.00;;;10.90;;
42600;SDS011;28229;48.856;9.088;2022-08-19T00:06:49;12.87;;;11.63;;
42600;SDS011;28229;48.856;9.088;2022-08-19T00:09:16;13.00;;;11.80;;
42600;SDS011;28229;48.856;9.088;2022-08-19T00:11:44;12.33;;;11.13;;
42600;SDS011;28229;48.856;9.088;2022-08-19T00:14:12;13.00;;;11.80;;
42600;SDS011;28229;48.856;9.088;2022-08-19T00:16:41;13.40;;;12.10;;
42600;SDS011;28229;48.856;9.088;2022-08-19T00:19:08;12.87;;;11.57;;
42600;SDS011;28229;48.856;9.088;2022-08-19T00:21:36;12.60;;;11.40;;
42600;SDS011;28229;48.856;9.088;2022-08-19T00:24:08;12.93;;;11.73;;
42600;SDS011;28229;48.856;9.088;2022-08-19T00:26:36;13.00;;;11.77;;
42600;SDS011;28229;48.856;9.088;2022-08-19T00:29:03;12.37;;;11.10;;
42600;SDS011;28229;48.856;9.088;2022-08-19T00:31:30;14.13;;;12.67;;
42600;SDS011;28229;48.856;9.088;2022-08-19T00:33:56;12.53;;;11.43;;
42600;SDS011;28229;48.856;9.088;2022-08-19T00:36:22;13.57;;;12.30;;
42600;SDS011;28229;48.856;9.088;2022-08-19T00:38:48;12.83;;;11.63;;
42600;SDS011;28229;48.856;9.088;2022-08-19T00:41:18;12.87;;;11.60;;
42600;SDS011;28229;48.856;9.088;2022-08-19T00:46:37;13.57;;;12.30;;
42600;SDS011;28229;48.856;9.088;2022-08-19T00:49:16;14.00;;;12.70;;
42600;SDS011;28229;48.856;9.088;2022-08-19T00:51:43;13.80;;;12.43;;
42600;SDS011;28229;48.856;9.088;2022-08-19T00:54:12;14.00;;;11.97;;
42600;SDS011;28229;48.856;9.088;2022-08-19T00:56:38;12.60;;;11.47;;
42600;SDS011;28229;48.856;9.088;2022-08-19T00:59:05;13.13;;;11.93;;
42600;SDS011;28229;48.856;9.088;2022-08-19T01:01:35;13.87;;;12.40;;
42600;SDS011;28229;48.856;9.088;2022-08-19T01:04:02;13.53;;;12.23;;
42600;SDS011;28229;48.856;9.088;2022-08-19T01:06:28;13.63;;;12.33;;
42600;SDS011;28229;48.856;9.088;2022-08-19T01:08:56;12.97;;;11.77;;
42600;SDS011;28229;48.856;9.088;2022-08-19T01:11:22;13.20;;;11.90;;
42600;SDS011;28229;48.856;9.088;2022-08-19T01:13:48;14.40;;;13.00;;
42600;SDS011;28229;48.856;9.088;2022-08-19T01:16:17;14.73;;;13.33;;
42600;SDS011;28229;48.856;9.088;2022-08-19T01:18:46;15.50;;;12.90;;
42600;SDS011;28229;48.856;9.088;2022-08-19T01:21:31;14.13;;;12.63;;
42600;SDS011;28229;48.856;9.088;2022-08-19T01:24:01;13.70;;;12.30;;
42600;SDS011;28229;48.856;9.088;2022-08-19T01:26:27;13.37;;;12.07;;
42600;SDS011;28229;48.856;9.088;2022-08-19T01:28:54;13.80;;;12.60;;
42600;SDS011;28229;48.856;9.088;2022-08-19T01:31:24;14.53;;;13.10;;
42600;SDS011;28229;48.856;9.088;2022-08-19T01:33:51;15.07;;;13.57;;
42600;SDS011;28229;48.856;9.088;2022-08-19T01:36:23;14.63;;;13.23;;
42600;SDS011;28229;48.856;9.088;2022-08-19T01:38:53;13.60;;;12.30;;
42600;SDS011;28229;48.856;9.088;2022-08-19T01:41:19;15.27;;;13.87;;
42600;SDS011;28229;48.856;9.088;2022-08-19T01:43:45;14.77;;;13.33;;
42600;SDS011;28229;48.856;9.088;2022-08-19T01:46:11;15.57;;;13.97;;
42600;SDS011;28229;48.856;9.088;2022-08-19T01:48:38;15.87;;;14.27;;
42600;SDS011;28229;48.856;9.088;2022-08-19T01:51:06;14.67;;;13.13;;
42600;SDS011;28229;48.856;9.088;2022-08-19T01:53:33;15.40;;;13.90;;
42600;SDS011;28229;48.856;9.088;2022-08-19T01:55:59;16.47;;;14.87;;
42600;SDS011;28229;48.856;9.088;2022-08-19T01:58:27;16.70;;;15.00;;
42600;SDS011;28229;48.856;9.088;2022-08-19T02:00:57;17.90;;;15.97;;
42600;SDS011;28229;48.856;9.088;2022-08-19T02:03:24;16.90;;;15.30;;
42600;SDS011;28229;48.856;9.088;2022-08-19T02:05:54;17.23;;;15.50;;
42600;SDS011;28229;48.856;9.088;2022-08-19T02:08:28;16.60;;;14.90;;
42600;SDS011;28229;48.856;9.088;2022-08-19T02:10:55;17.53;;;15.73;;
42600;SDS011;28229;48.856;9.088;2022-08-19T02:13:21;17.57;;;15.80;;
42600;SDS011;28229;48.856;9.088;2022-08-19T02:15:48;18.30;;;15.97;;
42600;SDS011;28229;48.856;9.088;2022-08-19T02:18:14;17.57;;;15.73;;
42600;SDS011;28229;48.856;9.088;2022-08-19T02:20:41;19.33;;;17.33;;
42600;SDS011;28229;48.856;9.088;2022-08-19T02:23:09;18.03;;;16.23;;
42600;SDS011;28229;48.856;9.088;2022-08-19T02:25:36;18.20;;;16.37;;
42600;SDS011;28229;48.856;9.088;2022-08-19T02:28:02;18.03;;;16.27;;
42600;SDS011;28229;48.856;9.088;2022-08-19T02:30:28;18.53;;;16.57;;
42600;SDS011;28229;48.856;9.088;2022-08-19T02:32:54;18.57;;;16.37;;
42600;SDS011;28229;48.856;9.088;2022-08-19T02:35:20;19.40;;;17.50;;
42600;SDS011;28229;48.856;9.088;2022-08-19T02:37:47;17.77;;;15.97;;
42600;SDS011;28229;48.856;9.088;2022-08-19T02:40:32;19.77;;;17.30;;
42600;SDS011;28229;48.856;9.088;2022-08-19T02:43:05;20.33;;;18.23;;
42600;SDS011;28229;48.856;9.088;2022-08-19T02:45:34;19.43;;;17.43;;
42600;SDS011;28229;48.856;9.088;2022-08-19T02:48:01;17.93;;;16.20;;
42600;SDS011;28229;48.856;9.088;2022-08-19T02:50:28;19.50;;;17.50;;
42600;SDS011;28229;48.856;9.088;2022-08-19T02:52:54;20.03;;;17.93;;
42600;SDS011;28229;48.856;9.088;2022-08-19T02:55:19;20.10;;;18.00;;
42600;SDS011;28229;48.856;9.088;2022-08-19T02:57:46;20.00;;;18.00;;
42600;SDS011;28229;48.856;9.088;2022-08-19T03:00:12;19.07;;;17.17;;
42600;SDS011;28229;48.856;9.088;2022-08-19T03:02:39;19.77;;;17.77;;
42600;SDS011;28229;48.856;9.088;2022-08-19T03:05:06;20.63;;;18.57;;
42600;SDS011;28229;48.856;9.088;2022-08-19T03:07:35;20.97;;;18.23;;
42600;SDS011;28229;48.856;9.088;2022-08-19T03:10:02;19.33;;;17.37;;
42600;SDS011;28229;48.856;9.088;2022-08-19T03:12:29;20.27;;;18.27;;
42600;SDS011;28229;48.856;9.088;2022-08-19T03:14:55;19.20;;;17.20;;
42600;SDS011;28229;48.856;9.088;2022-08-19T03:17:21;20.17;;;18.13;;
42600;SDS011;28229;48.856;9.088;2022-08-19T03:19:47;19.53;;;17.50;;
42600;SDS011;28229;48.856;9.088;2022-08-19T03:22:13;19.53;;;17.63;;
42600;SDS011;28229;48.856;9.088;2022-08-19T03:24:39;21.33;;;18.37;;
42600;SDS011;28229;48.856;9.088;2022-08-19T03:27:05;19.63;;;17.63;;
42600;SDS011;28229;48.856;9.088;2022-08-19T03:29:31;20.50;;;17.57;;
42600;SDS011;28229;48.856;9.088;2022-08-19T03:31:58;21.43;;;19.23;;
42600;SDS011;28229;48.856;9.088;2022-08-19T03:34:27;19.93;;;17.83;;
42600;SDS011;28229;48.856;9.088;2022-08-19T03:36:55;21.47;;;19.13;;
42600;SDS011;28229;48.856;9.088;2022-08-19T03:39:29;21.87;;;19.50;;
42600;SDS011;28229;48.856;9.088;2022-08-19T03:41:55;22.00;;;19.80;;
42600;SDS011;28229;48.856;9.088;2022-08-19T03:44:26;22.47;;;20.17;;
42600;SDS011;28229;48.856;9.088;2022-08-19T03:46:54;23.13;;;20.83;;
42600;SDS011;28229;48.856;9.088;2022-08-19T03:49:23;23.60;;;20.73;;
42600;SDS011;28229;48.856;9.088;2022-08-19T03:51:50;23.07;;;20.77;;
42600;SDS011;28229;48.856;9.088;2022-08-19T03:54:17;23.80;;;21.30;;
42600;SDS011;28229;48.856;9.088;2022-08-19T03:56:46;22.43;;;20.13;;
42600;SDS011;28229;48.856;9.088;2022-08-19T03:59:15;22.73;;;20.37;;
42600;SDS011;28229;48.856;9.088;2022-08-19T04:01:52;22.03;;;19.80;;
42600;SDS011;28229;48.856;9.088;2022-08-19T04:04:22;24.03;;;21.53;;
42600;SDS011;28229;48.856;9.088;2022-08-19T04:06:49;22.97;;;20.27;;
42600;SDS011;28229;48.856;9.088;2022-08-19T04:09:16;23.40;;;21.07;;
42600;SDS011;28229;48.856;9.088;2022-08-19T04:11:43;23.67;;;21.23;;
42600;SDS011;28229;48.856;9.088;2022-08-19T04:14:13;24.73;;;22.10;;
42600;SDS011;28229;48.856;9.088;2022-08-19T04:16:42;22.10;;;20.00;;
42600;SDS011;28229;48.856;9.088;2022-08-19T04:19:10;23.10;;;20.80;;
42600;SDS011;28229;48.856;9.088;2022-08-19T04:21:36;22.37;;;19.97;;
42600;SDS011;28229;48.856;9.088;2022-08-19T04:24:02;23.03;;;20.60;;
42600;SDS011;28229;48.856;9.088;2022-08-19T04:26:31;22.57;;;20.33;;
42600;SDS011;28229;48.856;9.088;2022-08-19T04:29:08;23.60;;;21.20;;
42600;SDS011;28229;48.856;9.088;2022-08-19T04:31:39;23.30;;;21.00;;
42600;SDS011;28229;48.856;9.088;2022-08-19T04:34:07;23.30;;;20.80;;
42600;SDS011;28229;48.856;9.088;2022-08-19T04:36:38;22.90;;;20.60;;
42600;SDS011;28229;48.856;9.088;2022-08-19T04:39:14;25.20;;;22.60;;
42600;SDS011;28229;48.856;9.088;2022-08-19T04:41:41;23.83;;;21.33;;
42600;SDS011;28229;48.856;9.088;2022-08-19T04:44:26;24.03;;;21.63;;
42600;SDS011;28229;48.856;9.088;2022-08-19T04:46:54;22.97;;;20.57;;
42600;SDS011;28229;48.856;9.088;2022-08-19T04:49:20;22.67;;;20.57;;
42600;SDS011;28229;48.856;9.088;2022-08-19T04:51:48;23.03;;;20.83;;
42600;SDS011;28229;48.856;9.088;2022-08-19T04:54:16;22.73;;;20.43;;
42600;SDS011;28229;48.856;9.088;2022-08-19T04:56:44;21.47;;;19.37;;
42600;SDS011;28229;48.856;9.088;2022-08-19T04:59:10;23.63;;;21.20;;
42600;SDS011;28229;48.856;9.088;2022-08-19T05:01:37;24.10;;;21.60;;
42600;SDS011;28229;48.856;9.088;2022-08-19T05:04:04;23.47;;;21.00;;
42600;SDS011;28229;48.856;9.088;2022-08-19T05:06:32;22.90;;;20.60;;
42600;SDS011;28229;48.856;9.088;2022-08-19T05:09:00;22.57;;;20.47;;
42600;SDS011;28229;48.856;9.088;2022-08-19T05:11:31;24.63;;;22.13;;
42600;SDS011;28229;48.856;9.088;2022-08-19T05:13:59;22.63;;;20.43;;
42600;SDS011;28229;48.856;9.088;2022-08-19T05:16:26;24.27;;;21.77;;
42600;SDS011;28229;48.856;9.088;2022-08-19T05:18:53;24.10;;;21.80;;
42600;SDS011;28229;48.856;9.088;2022-08-19T05:21:38;23.63;;;21.47;;
42600;SDS011;28229;48.856;9.088;2022-08-19T05:24:24;22.97;;;20.67;;
42600;SDS011;28229;48.856;9.088;2022-08-19T05:26:51;22.97;;;20.77;;
42600;SDS011;28229;48.856;9.088;2022-08-19T05:29:19;23.57;;;21.27;;
42600;SDS011;28229;48.856;9.088;2022-08-19T05:31:46;23.10;;;20.70;;
42600;SDS011;28229;48.856;9.088;2022-08-19T05:34:15;23.50;;;21.30;;
42600;SDS011;28229;48.856;9.088;2022-08-19T05:36:42;23.67;;;21.20;;
42600;SDS011;28229;48.856;9.088;2022-08-19T05:39:12;23.20;;;20.80;;
42600;SDS011;28229;48.856;9.088;2022-08-19T05:41:44;22.30;;;20.03;;
42600;SDS011;28229;48.856;9.088;2022-08-19T05:44:11;22.93;;;20.73;;
42600;SDS011;28229;48.856;9.088;2022-08-19T05:46:38;22.80;;;20.43;;
42600;SDS011;28229;48.856;9.088;2022-08-19T05:49:05;23.97;;;21.57;;
42600;SDS011;28229;48.856;9.088;2022-08-19T05:51:32;23.13;;;20.83;;
42600;SDS011;28229;48.856;9.088;2022-08-19T05:54:03;23.30;;;20.90;;
42600;SDS011;28229;48.856;9.088;2022-08-19T05:56:31;23.87;;;21.40;;
42600;SDS011;28229;48.856;9.088;2022-08-19T05:58:58;22.37;;;20.17;;
42600;SDS011;28229;48.856;9.088;2022-08-19T06:01:24;23.03;;;20.83;;
42600;SDS011;28229;48.856;9.088;2022-08-19T06:03:51;23.77;;;21.33;;
42600;SDS011;28229;48.856;9.088;2022-08-19T06:06:18;23.70;;;21.30;;
42600;SDS011;28229;48.856;9.088;2022-08-19T06:08:44;23.40;;;20.90;;
42600;SDS011;28229;48.856;9.088;2022-08-19T06:13:41;23.80;;;21.30;;
42600;SDS011;28229;48.856;9.088;2022-08-19T06:16:07;23.07;;;20.60;;
42600;SDS011;28229;48.856;9.088;2022-08-19T06:18:33;23.03;;;20.73;;
42600;SDS011;28229;48.856;9.088;2022-08-19T06:20:59;23.10;;;20.77;;
42600;SDS011;28229;48.856;9.088;2022-08-19T06:23:29;23.27;;;20.97;;
42600;SDS011;28229;48.856;9.088;2022-08-19T06:25:56;22.90;;;20.70;;
42600;SDS011;28229;48.856;9.088;2022-08-19T06:28:22;23.20;;;20.80;;
42600;SDS011;28229;48.856;9.088;2022-08-19T06:30:49;22.57;;;20.37;;
42600;SDS011;28229;48.856;9.088;2022-08-19T06:33:16;23.17;;;20.77;;
42600;SDS011;28229;48.856;9.088;2022-08-19T06:35:42;24.27;;;22.03;;
42600;SDS011;28229;48.856;9.088;2022-08-19T06:38:08;21.63;;;19.30;;
42600;SDS011;28229;48.856;9.088;2022-08-19T06:40:35;23.33;;;21.10;;
42600;SDS011;28229;48.856;9.088;2022-08-19T06:43:03;23.70;;;21.30;;
42600;SDS011;28229;48.856;9.088;2022-08-19T06:45:29;22.23;;;19.93;;
42600;SDS011;28229;48.856;9.088;2022-08-19T06:47:55;22.60;;;20.33;;
42600;SDS011;28229;48.856;9.088;2022-08-19T06:50:22;22.13;;;20.03;;
42600;SDS011;28229;48.856;9.088;2022-08-19T06:52:48;22.20;;;20.00;;
42600;SDS011;28229;48.856;9.088;2022-08-19T06:55:17;23.90;;;21.40;;
42600;SDS011;28229;48.856;9.088;2022-08-19T06:57:43;23.27;;;20.93;;
42600;SDS011;28229;48.856;9.088;2022-08-19T07:00:11;23.70;;;21.23;;
42600;SDS011;28229;48.856;9.088;2022-08-19T07:02:42;22.90;;;20.50;;
42600;SDS011;28229;48.856;9.088;2022-08-19T07:05:09;21.80;;;19.77;;
42600;SDS011;28229;48.856;9.088;2022-08-19T07:07:35;22.77;;;20.47;;
42600;SDS011;28229;48.856;9.088;2022-08-19T07:10:01;22.50;;;20.30;;
42600;SDS011;28229;48.856;9.088;2022-08-19T07:12:29;23.67;;;20.57;;
42600;SDS011;28229;48.856;9.088;2022-08-19T07:15:00;22.50;;;20.20;;
42600;SDS011;28229;48.856;9.088;2022-08-19T07:17:26;21.10;;;18.90;;
42600;SDS011;28229;48.856;9.088;2022-08-19T07:19:52;21.50;;;19.20;;
42600;SDS011;28229;48.856;9.088;2022-08-19T07:22:18;22.40;;;19.90;;
42600;SDS011;28229;48.856;9.088;2022-08-19T07:24:47;21.63;;;19.43;;
42600;SDS011;28229;48.856;9.088;2022-08-19T07:27:14;21.60;;;19.30;;
42600;SDS011;28229;48.856;9.088;2022-08-19T07:29:40;24.93;;;19.70;;
42600;SDS011;28229;48.856;9.088;2022-08-19T07:32:06;20.87;;;18.40;;
42600;SDS011;28229;48.856;9.088;2022-08-19T07:34:32;22.13;;;19.80;;
42600;SDS011;28229;48.856;9.088;2022-08-19T07:37:03;21.37;;;19.27;;
42600;SDS011;28229;48.856;9.088;2022-08-19T07:39:31;20.67;;;18.77;;
42600;SDS011;28229;48.856;9.088;2022-08-19T07:41:59;20.97;;;18.77;;
42600;SDS011;28229;48.856;9.088;2022-08-19T07:44:29;20.50;;;18.30;;
42600;SDS011;28229;48.856;9.088;2022-08-19T07:46:55;19.93;;;17.93;;
42600;SDS011;28229;48.856;9.088;2022-08-19T07:49:22;19.70;;;17.80;;
42600;SDS011;28229;48.856;9.088;2022-08-19T07:51:50;20.57;;;18.47;;
42600;SDS011;28229;48.856;9.088;2022-08-19T07:54:20;20.07;;;18.10;;
42600;SDS011;28229;48.856;9.088;2022-08-19T07:56:48;19.87;;;17.63;;
42600;SDS011;28229;48.856;9.088;2022-08-19T07:59:16;20.60;;;18.33;;
42600;SDS011;28229;48.856;9.088;2022-08-19T08:01:43;20.90;;;18.90;;
42600;SDS011;28229;48.856;9.088;2022-08-19T08:04:10;20.63;;;18.57;;
42600;SDS011;28229;48.856;9.088;2022-08-19T08:06:55;20.27;;;18.37;;
42600;SDS011;28229;48.856;9.088;2022-08-19T08:09:41;20.00;;;18.00;;
42600;SDS011;28229;48.856;9.088;2022-08-19T08:12:09;20.70;;;18.70;;
42600;SDS011;28229;48.856;9.088;2022-08-19T08:14:42;20.03;;;17.97;;
42600;SDS011;28229;48.856;9.088;2022-08-19T08:17:14;20.37;;;18.33;;
42600;SDS011;28229;48.856;9.088;2022-08-19T08:19:42;18.80;;;17.00;;
42600;SDS011;28229;48.856;9.088;2022-08-19T08:22:09;19.43;;;17.43;;
42600;SDS011;28229;48.856;9.088;2022-08-19T08:25:01;18.47;;;16.77;;
42600;SDS011;28229;48.856;9.088;2022-08-19T08:27:38;19.73;;;17.07;;
42600;SDS011;28229;48.856;9.088;2022-08-19T08:30:07;19.37;;;17.20;;
42600;SDS011;28229;48.856;9.088;2022-08-19T08:32:38;19.40;;;17.13;;
42600;SDS011;28229;48.856;9.088;2022-08-19T08:35:06;21.47;;;17.17;;
42600;SDS011;28229;48.856;9.088;2022-08-19T08:37:34;18.60;;;16.80;;
42600;SDS011;28229;48.856;9.088;2022-08-19T08:40:07;19.27;;;16.73;;
42600;SDS011;28229;48.856;9.088;2022-08-19T08:42:55;21.33;;;18.50;;
42600;SDS011;28229;48.856;9.088;2022-08-19T08:45:29;21.97;;;17.53;;
42600;SDS011;28229;48.856;9.088;2022-08-19T08:47:57;18.70;;;16.57;;
42600;SDS011;28229;48.856;9.088;2022-08-19T08:50:29;17.93;;;15.30;;
42600;SDS011;28229;48.856;9.088;2022-08-19T08:53:03;17.87;;;15.93;;
42600;SDS011;28229;48.856;9.088;2022-08-19T08:55:31;17.40;;;14.83;;
42600;SDS011;28229;48.856;9.088;2022-08-19T08:58:08;22.43;;;17.07;;
42600;SDS011;28229;48.856;9.088;2022-08-19T09:00:41;23.60;;;15.93;;
42600;SDS011;28229;48.856;9.088;2022-08-19T09:03:16;22.03;;;17.07;;
42600;SDS011;28229;48.856;9.088;2022-08-19T09:05:59;18.23;;;15.20;;
42600;SDS011;28229;48.856;9.088;2022-08-19T09:08:33;19.00;;;17.10;;
42600;SDS011;28229;48.856;9.088;2022-08-19T09:16:53;16.83;;;15.13;;
42600;SDS011;28229;48.856;9.088;2022-08-19T09:19:19;16.53;;;14.50;;
42600;SDS011;28229;48.856;9.088;2022-08-19T09:21:45;15.97;;;14.37;;
42600;SDS011;28229;48.856;9.088;2022-08-19T09:24:11;15.63;;;14.13;;
42600;SDS011;28229;48.856;9.088;2022-08-19T09:26:36;16.00;;;14.30;;
42600;SDS011;28229;48.856;9.088;2022-08-19T09:29:02;15.93;;;14.33;;
42600;SDS011;28229;48.856;9.088;2022-08-19T09:31:31;14.57;;;13.07;;
42600;SDS011;28229;48.856;9.088;2022-08-19T09:33:58;17.17;;;13.47;;
42600;SDS011;28229;48.856;9.088;2022-08-19T09:36:26;16.63;;;13.90;;
42600;SDS011;28229;48.856;9.088;2022-08-19T09:38:55;14.67;;;13.17;;
42600;SDS011;28229;48.856;9.088;2022-08-19T09:41:22;14.90;;;12.73;;
42600;SDS011;28229;48.856;9.088;2022-08-19T09:43:52;13.80;;;12.47;;
42600;SDS011;28229;48.856;9.088;2022-08-19T09:46:22;13.83;;;12.47;;
42600;SDS011;28229;48.856;9.088;2022-08-19T09:48:49;14.40;;;12.77;;
42600;SDS011;28229;48.856;9.088;2022-08-19T09:51:18;13.97;;;12.50;;
42600;SDS011;28229;48.856;9.088;2022-08-19T09:53:49;15.47;;;12.00;;
42600;SDS011;28229;48.856;9.088;2022-08-19T09:56:16;13.90;;;12.60;;
42600;SDS011;28229;48.856;9.088;2022-08-19T09:58:43;17.67;;;12.57;;
42600;SDS011;28229;48.856;9.088;2022-08-19T10:01:15;14.23;;;12.03;;
42600;SDS011;28229;48.856;9.088;2022-08-19T10:03:43;12.97;;;11.70;;
42600;SDS011;28229;48.856;9.088;2022-08-19T10:06:09;13.50;;;12.27;;
42600;SDS011;28229;48.856;9.088;2022-08-19T10:08:36;13.53;;;11.77;;
42600;SDS011;28229;48.856;9.088;2022-08-19T10:11:03;12.40;;;11.20;;
42600;SDS011;28229;48.856;9.088;2022-08-19T10:13:29;14.33;;;11.63;;
42600;SDS011;28229;48.856;9.088;2022-08-19T10:16:05;15.63;;;12.47;;
42600;SDS011;28229;48.856;9.088;2022-08-19T10:18:33;12.67;;;11.47;;
42600;SDS011;28229;48.856;9.088;2022-08-19T10:21:06;13.80;;;12.40;;
42600;SDS011;28229;48.856;9.088;2022-08-19T10:23:35;12.17;;;11.07;;
42600;SDS011;28229;48.856;9.088;2022-08-19T10:26:06;11.97;;;10.80;;
42600;SDS011;28229;48.856;9.088;2022-08-19T10:28:33;11.93;;;10.90;;
42600;SDS011;28229;48.856;9.088;2022-08-19T10:31:09;12.33;;;10.93;;
42600;SDS011;28229;48.856;9.088;2022-08-19T10:33:37;12.90;;;11.60;;
42600;SDS011;28229;48.856;9.088;2022-08-19T10:36:12;11.70;;;10.57;;
42600;SDS011;28229;48.856;9.088;2022-08-19T10:38:44;11.10;;;9.97;;
42600;SDS011;28229;48.856;9.088;2022-08-19T10:41:12;13.70;;;10.63;;
42600;SDS011;28229;48.856;9.088;2022-08-19T10:43:40;11.37;;;10.27;;
42600;SDS011;28229;48.856;9.088;2022-08-19T10:46:08;10.73;;;9.63;;
42600;SDS011;28229;48.856;9.088;2022-08-19T10:48:35;9.93;;;8.97;;
42600;SDS011;28229;48.856;9.088;2022-08-19T10:51:02;10.57;;;9.33;;
42600;SDS011;28229;48.856;9.088;2022-08-19T10:53:47;11.00;;;10.00;;
42600;SDS011;28229;48.856;9.088;2022-08-19T10:56:13;10.77;;;9.77;;
42600;SDS011;28229;48.856;9.088;2022-08-19T10:58:58;10.53;;;9.63;;
42600;SDS011;28229;48.856;9.088;2022-08-19T11:01:24;10.80;;;9.70;;
42600;SDS011;28229;48.856;9.088;2022-08-19T11:03:51;10.70;;;9.70;;
42600;SDS011;28229;48.856;9.088;2022-08-19T11:06:18;10.03;;;9.03;;
42600;SDS011;28229;48.856;9.088;2022-08-19T11:08:45;10.67;;;9.37;;
42600;SDS011;28229;48.856;9.088;2022-08-19T11:11:11;9.83;;;8.97;;
42600;SDS011;28229;48.856;9.088;2022-08-19T11:13:38;9.90;;;8.90;;
42600;SDS011;28229;48.856;9.088;2022-08-19T11:16:10;9.63;;;8.53;;
42600;SDS011;28229;48.856;9.088;2022-08-19T11:18:42;9.67;;;8.00;;
42600;SDS011;28229;48.856;9.088;2022-08-19T11:21:17;10.23;;;8.20;;
42600;SDS011;28229;48.856;9.088;2022-08-19T11:23:46;10.20;;;8.50;;
42600;SDS011;28229;48.856;9.088;2022-08-19T11:26:14;8.40;;;7.70;;
42600;SDS011;28229;48.856;9.088;2022-08-19T11:28:41;9.17;;;8.37;;
42600;SDS011;28229;48.856;9.088;2022-08-19T11:31:14;10.47;;;8.33;;
42600;SDS011;28229;48.856;9.088;2022-08-19T11:33:48;8.83;;;8.13;;
42600;SDS011;28229;48.856;9.088;2022-08-19T11:36:17;8.80;;;8.00;;
42600;SDS011;28229;48.856;9.088;2022-08-19T11:38:44;8.10;;;7.50;;
42600;SDS011;28229;48.856;9.088;2022-08-19T11:41:10;9.20;;;8.30;;
42600;SDS011;28229;48.856;9.088;2022-08-19T11:43:36;10.13;;;8.87;;
42600;SDS011;28229;48.856;9.088;2022-08-19T11:46:06;9.07;;;8.23;;
42600;SDS011;28229;48.856;9.088;2022-08-19T11:48:34;10.83;;;8.40;;
42600;SDS011;28229;48.856;9.088;2022-08-19T11:51:02;9.20;;;8.30;;
42600;SDS011;28229;48.856;9.088;2022-08-19T11:53:31;9.03;;;8.13;;
42600;SDS011;28229;48.856;9.088;2022-08-19T11:55:58;9.50;;;8.00;;
42600;SDS011;28229;48.856;9.088;2022-08-19T11:58:24;9.63;;;8.43;;
42600;SDS011;28229;48.856;9.088;2022-08-19T12:00:52;8.67;;;7.87;;
42600;SDS011;28229;48.856;9.088;2022-08-19T12:03:18;8.77;;;8.07;;
42600;SDS011;28229;48.856;9.088;2022-08-19T12:05:47;10.87;;;8.57;;
42600;SDS011;28229;48.856;9.088;2022-08-19T12:08:15;8.50;;;7.70;;
42600;SDS011;28229;48.856;9.088;2022-08-19T12:10:42;8.27;;;7.47;;
42600;SDS011;28229;48.856;9.088;2022-08-19T12:13:10;8.43;;;7.63;;
42600;SDS011;28229;48.856;9.088;2022-08-19T12:15:40;6.93;;;6.33;;
42600;SDS011;28229;48.856;9.088;2022-08-19T12:18:08;7.80;;;7.00;;
42600;SDS011;28229;48.856;9.088;2022-08-19T12:20:38;8.17;;;6.63;;
42600;SDS011;28229;48.856;9.088;2022-08-19T12:23:05;8.63;;;7.10;;
42600;SDS011;28229;48.856;9.088;2022-08-19T12:25:34;7.70;;;7.00;;
42600;SDS011;28229;48.856;9.088;2022-08-19T12:28:00;7.80;;;7.00;;
42600;SDS011;28229;48.856;9.088;2022-08-19T12:30:26;8.60;;;7.90;;
42600;SDS011;28229;48.856;9.088;2022-08-19T12:32:52;8.30;;;7.47;;
42600;SDS011;28229;48.856;9.088;2022-08-19T12:35:18;7.57;;;6.97;;
42600;SDS011;28229;48.856;9.088;2022-08-19T12:37:46;6.90;;;6.30;;
42600;SDS011;28229;48.856;9.088;2022-08-19T12:40:13;6.50;;;6.00;;
42600;SDS011;28229;48.856;9.088;2022-08-19T12:42:40;6.47;;;5.97;;
42600;SDS011;28229;48.856;9.088;2022-08-19T12:45:11;6.60;;;6.10;;
42600;SDS011;28229;48.856;9.088;2022-08-19T12:47:37;6.77;;;6.17;;
42600;SDS011;28229;48.856;9.088;2022-08-19T12:50:04;6.85;;;6.28;;
42600;SDS011;28229;48.856;9.088;2022-08-19T12:52:34;8.18;;;6.55;;
42600;SDS011;28229;48.856;9.088;2022-08-19T12:55:07;6.30;;;5.70;;
42600;SDS011;28229;48.856;9.088;2022-08-19T12:57:34;6.03;;;5.53;;
42600;SDS011;28229;48.856;9.088;2022-08-19T13:02:31;6.00;;;5.50;;
42600;SDS011;28229;48.856;9.088;2022-08-19T13:04:58;5.50;;;5.15;;
42600;SDS011;28229;48.856;9.088;2022-08-19T13:07:24;6.50;;;6.00;;
42600;SDS011;28229;48.856;9.088;2022-08-19T13:09:53;5.90;;;5.50;;
42600;SDS011;28229;48.856;9.088;2022-08-19T13:12:19;8.63;;;5.73;;
42600;SDS011;28229;48.856;9.088;2022-08-19T13:14:45;7.22;;;6.07;;
42600;SDS011;28229;48.856;9.088;2022-08-19T13:17:15;6.53;;;5.93;;
42600;SDS011;28229;48.856;9.088;2022-08-19T13:19:41;6.85;;;6.18;;
42600;SDS011;28229;48.856;9.088;2022-08-19T13:22:07;6.25;;;5.75;;
42600;SDS011;28229;48.856;9.088;2022-08-19T13:24:33;7.20;;;6.50;;
42600;SDS011;28229;48.856;9.088;2022-08-19T13:27:00;6.00;;;5.50;;
42600;SDS011;28229;48.856;9.088;2022-08-19T13:29:26;6.43;;;5.80;;
42600;SDS011;28229;48.856;9.088;2022-08-19T13:32:18;6.40;;;5.85;;
42600;SDS011;28229;48.856;9.088;2022-08-19T13:35:04;6.50;;;5.90;;
42600;SDS011;28229;48.856;9.088;2022-08-19T13:37:30;7.45;;;6.30;;
42600;SDS011;28229;48.856;9.088;2022-08-19T13:40:09;6.50;;;6.00;;
42600;SDS011;28229;48.856;9.088;2022-08-19T13:42:41;5.93;;;5.40;;
42600;SDS011;28229;48.856;9.088;2022-08-19T13:45:08;7.32;;;6.00;;
42600;SDS011;28229;48.856;9.088;2022-08-19T13:47:34;6.07;;;5.60;;
42600;SDS011;28229;48.856;9.088;2022-08-19T13:50:02;5.93;;;5.43;;
42600;SDS011;28229;48.856;9.088;2022-08-19T13:52:28;6.00;;;5.40;;
42600;SDS011;28229;48.856;9.088;2022-08-19T13:54:54;5.60;;;5.20;;
42600;SDS011;28229;48.856;9.088;2022-08-19T13:57:21;7.13;;;6.50;;
42600;SDS011;28229;48.856;9.088;2022-08-19T13:59:47;8.00;;;7.30;;
42600;SDS011;28229;48.856;9.088;2022-08-19T14:02:13;8.00;;;7.20;;
42600;SDS011;28229;48.856;9.088;2022-08-19T14:04:39;8.82;;;8.02;;
42600;SDS011;28229;48.856;9.088;2022-08-19T14:07:05;9.82;;;8.82;;
42600;SDS011;28229;48.856;9.088;2022-08-19T14:09:30;11.70;;;9.65;;
42600;SDS011;28229;48.856;9.088;2022-08-19T14:11:56;13.02;;;11.73;;
42600;SDS011;28229;48.856;9.088;2022-08-19T14:14:22;11.60;;;10.43;;
42600;SDS011;28229;48.856;9.088;2022-08-19T14:16:48;11.45;;;10.27;;
42600;SDS011;28229;48.856;9.088;2022-08-19T14:19:15;11.60;;;10.50;;
42600;SDS011;28229;48.856;9.088;2022-08-19T14:21:41;10.98;;;9.98;;
42600;SDS011;28229;48.856;9.088;2022-08-19T14:24:07;10.25;;;9.35;;
42600;SDS011;28229;48.856;9.088;2022-08-19T14:26:33;10.80;;;9.90;;
42600;SDS011;28229;48.856;9.088;2022-08-19T14:28:59;9.82;;;9.02;;
42600;SDS011;28229;48.856;9.088;2022-08-19T14:31:26;9.52;;;8.63;;
42600;SDS011;28229;48.856;9.088;2022-08-19T14:33:57;9.27;;;8.27;;
42600;SDS011;28229;48.856;9.088;2022-08-19T14:36:23;8.32;;;7.72;;
42600;SDS011;28229;48.856;9.088;2022-08-19T14:38:49;7.38;;;6.65;;
42600;SDS011;28229;48.856;9.088;2022-08-19T14:41:16;6.22;;;5.63;;
42600;SDS011;28229;48.856;9.088;2022-08-19T14:43:48;6.50;;;5.90;;
42600;SDS011;28229;48.856;9.088;2022-08-19T14:46:19;5.95;;;5.40;;
42600;SDS011;28229;48.856;9.088;2022-08-19T14:48:47;5.07;;;4.78;;
42600;SDS011;28229;48.856;9.088;2022-08-19T14:51:14;5.25;;;4.88;;